sensor_id;sensor_type;location;lat;lon;timestamp;P1;durP1;ratioP1;P2;durP2;ratioP2
57593;SDS011;43423;46.510;6.686;2022-08-27T00:01:20;5.88;;;5.05;;
57593;SDS011;43423;46.510;6.686;2022-08-27T00:03:46;5.82;;;4.72;;
57593;SDS011;43423;46.510;6.686;2022-08-27T00:06:13;6.43;;;5.38;;
57593;SDS011;43423;46.510;6.686;2022-08-27T00:08:41;6.32;;;5.32;;
57593;SDS011;43423;46.510;6.686;2022-08-27T00:11:08;7.78;;;5.53;;
57593;SDS011;43423;46.510;6.686;2022-08-27T00:13:35;7.07;;;5.32;;
57593;SDS011;43423;46.510;6.686;2022-08-27T00:16:03;7.47;;;5.68;;
57593;SDS011;43423;46.510;6.686;2022-08-27T00:18:32;7.85;;;5.53;;
57593;SDS011;43423;46.510;6.686;2022-08-27T00:20:59;6.63;;;5.22;;
57593;SDS011;43423;46.510;6.686;2022-08-27T00:23:24;6.45;;;5.05;;
57593;SDS011;43423;46.510;6.686;2022-08-27T00:25:50;7.97;;;5.20;;
57593;SDS011;43423;46.510;6.686;2022-08-27T00:28:16;7.57;;;5.35;;
57593;SDS011;43423;46.510;6.686;2022-08-27T00:30:41;9.95;;;5.55;;
57593;SDS011;43423;46.510;6.686;2022-08-27T00:33:07;7.18;;;5.53;;
57593;SDS011;43423;46.510;6.686;2022-08-27T00:35:33;7.05;;;5.22;;
57593;SDS011;43423;46.510;6.686;2022-08-27T00:37:59;6.90;;;5.60;;
57593;SDS011;43423;46.510;6.686;2022-08-27T00:40:25;7.95;;;5.28;;
57593;SDS011;43423;46.510;6.686;2022-08-27T00:42:51;6.30;;;5.30;;
57593;SDS011;43423;46.510;6.686;2022-08-27T00:45:18;5.57;;;4.25;;
57593;SDS011;43423;46.510;6.686;2022-08-27T00:47:50;8.82;;;5.05;;
57593;SDS011;43423;46.510;6.686;2022-08-27T00:50:22;6.07;;;4.90;;
57593;SDS011;43423;46.510;6.686;2022-08-27T00:52:55;5.95;;;5.15;;
57593;SDS011;43423;46.510;6.686;2022-08-27T00:55:25;7.47;;;5.35;;
57593;SDS011;43423;46.510;6.686;2022-08-27T00:58:00;9.07;;;5.15;;
57593;SDS011;43423;46.510;6.686;2022-08-27T01:00:32;6.65;;;5.30;;
57593;SDS011;43423;46.510;6.686;2022-08-27T01:02:58;6.63;;;4.85;;
57593;SDS011;43423;46.510;6.686;2022-08-27T01:05:24;6.95;;;4.97;;
57593;SDS011;43423;46.510;6.686;2022-08-27T01:07:52;8.07;;;5.70;;
57593;SDS011;43423;46.510;6.686;2022-08-27T01:10:22;10.02;;;5.53;;
57593;SDS011;43423;46.510;6.686;2022-08-27T01:12:50;8.43;;;5.82;;
57593;SDS011;43423;46.510;6.686;2022-08-27T01:15:18;8.57;;;6.05;;
57593;SDS011;43423;46.510;6.686;2022-08-27T01:17:45;8.20;;;6.00;;
57593;SDS011;43423;46.510;6.686;2022-08-27T01:20:14;7.72;;;6.30;;
57593;SDS011;43423;46.510;6.686;2022-08-27T01:25:32;9.88;;;6.50;;
57593;SDS011;43423;46.510;6.686;2022-08-27T01:27:58;8.57;;;5.55;;
57593;SDS011;43423;46.510;6.686;2022-08-27T01:30:25;9.07;;;5.55;;
57593;SDS011;43423;46.510;6.686;2022-08-27T01:32:52;7.55;;;5.82;;
57593;SDS011;43423;46.510;6.686;2022-08-27T01:35:18;7.82;;;6.22;;
57593;SDS011;43423;46.510;6.686;2022-08-27T01:37:45;8.05;;;5.57;;
57593;SDS011;43423;46.510;6.686;2022-08-27T01:40:13;10.88;;;6.55;;
57593;SDS011;43423;46.510;6.686;2022-08-27T01:42:42;9.80;;;6.25;;
57593;SDS011;43423;46.510;6.686;2022-08-27T01:45:11;8.57;;;6.40;;
57593;SDS011;43423;46.510;6.686;2022-08-27T01:47:39;8.30;;;5.88;;
57593;SDS011;43423;46.510;6.686;2022-08-27T01:50:08;7.45;;;5.68;;
57593;SDS011;43423;46.510;6.686;2022-08-27T01:52:36;8.17;;;5.97;;
57593;SDS011;43423;46.510;6.686;2022-08-27T01:55:03;8.52;;;6.50;;
57593;SDS011;43423;46.510;6.686;2022-08-27T01:57:30;8.20;;;6.10;;
57593;SDS011;43423;46.510;6.686;2022-08-27T01:59:56;7.72;;;6.13;;
57593;SDS011;43423;46.510;6.686;2022-08-27T02:02:22;7.13;;;5.68;;
57593;SDS011;43423;46.510;6.686;2022-08-27T02:04:48;9.70;;;6.70;;
57593;SDS011;43423;46.510;6.686;2022-08-27T02:07:16;10.50;;;5.78;;
57593;SDS011;43423;46.510;6.686;2022-08-27T02:09:42;9.20;;;6.95;;
57593;SDS011;43423;46.510;6.686;2022-08-27T02:12:08;8.77;;;6.18;;
57593;SDS011;43423;46.510;6.686;2022-08-27T02:14:33;8.40;;;6.28;;
57593;SDS011;43423;46.510;6.686;2022-08-27T02:16:59;7.15;;;6.03;;
57593;SDS011;43423;46.510;6.686;2022-08-27T02:19:25;10.35;;;6.40;;
57593;SDS011;43423;46.510;6.686;2022-08-27T02:21:51;8.70;;;5.80;;
57593;SDS011;43423;46.510;6.686;2022-08-27T02:24:17;8.52;;;5.97;;
57593;SDS011;43423;46.510;6.686;2022-08-27T02:26:43;8.98;;;6.28;;
57593;SDS011;43423;46.510;6.686;2022-08-27T02:29:08;9.27;;;6.53;;
57593;SDS011;43423;46.510;6.686;2022-08-27T02:31:34;12.85;;;6.50;;
57593;SDS011;43423;46.510;6.686;2022-08-27T02:34:01;8.02;;;5.53;;
57593;SDS011;43423;46.510;6.686;2022-08-27T02:36:27;9.48;;;6.78;;
57593;SDS011;43423;46.510;6.686;2022-08-27T02:38:53;10.90;;;6.70;;
57593;SDS011;43423;46.510;6.686;2022-08-27T02:41:19;8.30;;;6.50;;
57593;SDS011;43423;46.510;6.686;2022-08-27T02:43:44;10.52;;;6.38;;
57593;SDS011;43423;46.510;6.686;2022-08-27T02:46:09;6.97;;;5.80;;
57593;SDS011;43423;46.510;6.686;2022-08-27T02:48:36;9.52;;;6.85;;
57593;SDS011;43423;46.510;6.686;2022-08-27T02:51:03;11.73;;;6.82;;
57593;SDS011;43423;46.510;6.686;2022-08-27T02:53:30;8.32;;;6.20;;
57593;SDS011;43423;46.510;6.686;2022-08-27T02:55:56;8.88;;;6.55;;
57593;SDS011;43423;46.510;6.686;2022-08-27T02:58:22;8.70;;;6.40;;
57593;SDS011;43423;46.510;6.686;2022-08-27T03:00:49;9.93;;;6.50;;
57593;SDS011;43423;46.510;6.686;2022-08-27T03:03:15;8.23;;;5.97;;
57593;SDS011;43423;46.510;6.686;2022-08-27T03:05:41;11.40;;;6.30;;
57593;SDS011;43423;46.510;6.686;2022-08-27T03:08:07;10.82;;;6.32;;
57593;SDS011;43423;46.510;6.686;2022-08-27T03:10:33;8.93;;;5.97;;
57593;SDS011;43423;46.510;6.686;2022-08-27T03:12:59;7.15;;;5.60;;
57593;SDS011;43423;46.510;6.686;2022-08-27T03:15:24;7.82;;;5.22;;
57593;SDS011;43423;46.510;6.686;2022-08-27T03:17:50;6.78;;;5.20;;
57593;SDS011;43423;46.510;6.686;2022-08-27T03:20:39;6.40;;;5.40;;
57593;SDS011;43423;46.510;6.686;2022-08-27T03:23:07;7.47;;;5.45;;
57593;SDS011;43423;46.510;6.686;2022-08-27T03:25:33;6.15;;;4.88;;
57593;SDS011;43423;46.510;6.686;2022-08-27T03:27:58;10.15;;;5.45;;
57593;SDS011;43423;46.510;6.686;2022-08-27T03:30:24;6.95;;;5.40;;
57593;SDS011;43423;46.510;6.686;2022-08-27T03:32:50;7.55;;;4.95;;
57593;SDS011;43423;46.510;6.686;2022-08-27T03:35:16;7.63;;;5.07;;
57593;SDS011;43423;46.510;6.686;2022-08-27T03:37:42;6.03;;;4.80;;
57593;SDS011;43423;46.510;6.686;2022-08-27T03:40:07;7.07;;;5.28;;
57593;SDS011;43423;46.510;6.686;2022-08-27T03:42:34;6.40;;;4.75;;
57593;SDS011;43423;46.510;6.686;2022-08-27T03:45:01;7.32;;;4.82;;
57593;SDS011;43423;46.510;6.686;2022-08-27T03:47:27;7.82;;;5.40;;
57593;SDS011;43423;46.510;6.686;2022-08-27T03:49:52;5.90;;;5.15;;
57593;SDS011;43423;46.510;6.686;2022-08-27T03:52:18;8.23;;;5.10;;
57593;SDS011;43423;46.510;6.686;2022-08-27T03:54:44;5.28;;;4.25;;
57593;SDS011;43423;46.510;6.686;2022-08-27T03:57:10;6.57;;;4.65;;
57593;SDS011;43423;46.510;6.686;2022-08-27T03:59:35;6.43;;;4.40;;
57593;SDS011;43423;46.510;6.686;2022-08-27T04:02:01;7.00;;;4.50;;
57593;SDS011;43423;46.510;6.686;2022-08-27T04:04:27;5.47;;;4.15;;
57593;SDS011;43423;46.510;6.686;2022-08-27T04:06:52;4.82;;;4.20;;
57593;SDS011;43423;46.510;6.686;2022-08-27T04:09:18;6.35;;;4.70;;
57593;SDS011;43423;46.510;6.686;2022-08-27T04:11:44;5.55;;;4.50;;
57593;SDS011;43423;46.510;6.686;2022-08-27T04:14:10;5.85;;;4.90;;
57593;SDS011;43423;46.510;6.686;2022-08-27T04:16:35;7.65;;;5.93;;
57593;SDS011;43423;46.510;6.686;2022-08-27T04:19:04;8.88;;;5.60;;
57593;SDS011;43423;46.510;6.686;2022-08-27T04:21:30;9.35;;;5.43;;
57593;SDS011;43423;46.510;6.686;2022-08-27T04:23:57;8.68;;;5.93;;
57593;SDS011;43423;46.510;6.686;2022-08-27T04:26:24;8.27;;;5.75;;
57593;SDS011;43423;46.510;6.686;2022-08-27T04:28:50;8.50;;;5.57;;
57593;SDS011;43423;46.510;6.686;2022-08-27T04:31:16;6.18;;;4.53;;
57593;SDS011;43423;46.510;6.686;2022-08-27T04:33:43;7.47;;;4.63;;
57593;SDS011;43423;46.510;6.686;2022-08-27T04:36:09;5.95;;;3.95;;
57593;SDS011;43423;46.510;6.686;2022-08-27T04:38:35;4.78;;;4.18;;
57593;SDS011;43423;46.510;6.686;2022-08-27T04:41:02;7.18;;;4.50;;
57593;SDS011;43423;46.510;6.686;2022-08-27T04:43:44;4.70;;;3.97;;
57593;SDS011;43423;46.510;6.686;2022-08-27T04:46:11;6.70;;;4.55;;
57593;SDS011;43423;46.510;6.686;2022-08-27T04:48:36;5.43;;;4.30;;
57593;SDS011;43423;46.510;6.686;2022-08-27T04:51:02;8.20;;;4.55;;
57593;SDS011;43423;46.510;6.686;2022-08-27T04:53:28;6.43;;;4.38;;
57593;SDS011;43423;46.510;6.686;2022-08-27T04:55:54;7.60;;;4.95;;
57593;SDS011;43423;46.510;6.686;2022-08-27T04:58:22;7.63;;;5.38;;
57593;SDS011;43423;46.510;6.686;2022-08-27T05:00:51;5.32;;;4.70;;
57593;SDS011;43423;46.510;6.686;2022-08-27T05:03:18;5.40;;;4.60;;
57593;SDS011;43423;46.510;6.686;2022-08-27T05:05:47;8.32;;;5.55;;
57593;SDS011;43423;46.510;6.686;2022-08-27T05:08:14;8.70;;;6.68;;
57593;SDS011;43423;46.510;6.686;2022-08-27T05:10:42;9.15;;;6.55;;
57593;SDS011;43423;46.510;6.686;2022-08-27T05:13:09;11.00;;;6.00;;
57593;SDS011;43423;46.510;6.686;2022-08-27T05:15:36;7.93;;;5.28;;
57593;SDS011;43423;46.510;6.686;2022-08-27T05:18:02;11.38;;;6.38;;
57593;SDS011;43423;46.510;6.686;2022-08-27T05:20:29;7.57;;;5.47;;
57593;SDS011;43423;46.510;6.686;2022-08-27T05:22:56;8.40;;;5.28;;
57593;SDS011;43423;46.510;6.686;2022-08-27T05:25:22;8.00;;;5.35;;
57593;SDS011;43423;46.510;6.686;2022-08-27T05:27:49;8.38;;;5.10;;
57593;SDS011;43423;46.510;6.686;2022-08-27T05:30:15;7.30;;;4.70;;
57593;SDS011;43423;46.510;6.686;2022-08-27T05:32:40;7.80;;;5.00;;
57593;SDS011;43423;46.510;6.686;2022-08-27T05:35:07;7.18;;;5.15;;
57593;SDS011;43423;46.510;6.686;2022-08-27T05:37:33;7.53;;;5.53;;
57593;SDS011;43423;46.510;6.686;2022-08-27T05:39:59;8.13;;;5.32;;
57593;SDS011;43423;46.510;6.686;2022-08-27T05:42:25;5.15;;;4.07;;
57593;SDS011;43423;46.510;6.686;2022-08-27T05:44:53;8.00;;;5.15;;
57593;SDS011;43423;46.510;6.686;2022-08-27T05:47:18;6.43;;;4.68;;
57593;SDS011;43423;46.510;6.686;2022-08-27T05:49:44;6.38;;;4.60;;
57593;SDS011;43423;46.510;6.686;2022-08-27T05:52:10;4.97;;;3.92;;
57593;SDS011;43423;46.510;6.686;2022-08-27T05:54:36;6.80;;;4.55;;
57593;SDS011;43423;46.510;6.686;2022-08-27T05:57:02;8.30;;;5.07;;
57593;SDS011;43423;46.510;6.686;2022-08-27T05:59:28;5.25;;;4.18;;
57593;SDS011;43423;46.510;6.686;2022-08-27T06:02:12;8.20;;;4.78;;
57593;SDS011;43423;46.510;6.686;2022-08-27T06:04:37;6.18;;;4.57;;
57593;SDS011;43423;46.510;6.686;2022-08-27T06:07:03;6.25;;;4.82;;
57593;SDS011;43423;46.510;6.686;2022-08-27T06:09:29;6.18;;;4.60;;
57593;SDS011;43423;46.510;6.686;2022-08-27T06:11:55;5.55;;;4.50;;
57593;SDS011;43423;46.510;6.686;2022-08-27T06:14:22;6.13;;;4.53;;
57593;SDS011;43423;46.510;6.686;2022-08-27T06:16:48;6.05;;;4.63;;
57593;SDS011;43423;46.510;6.686;2022-08-27T06:19:13;7.70;;;4.95;;
57593;SDS011;43423;46.510;6.686;2022-08-27T06:21:40;5.80;;;4.47;;
57593;SDS011;43423;46.510;6.686;2022-08-27T06:24:07;5.60;;;4.65;;
57593;SDS011;43423;46.510;6.686;2022-08-27T06:26:33;5.65;;;4.60;;
57593;SDS011;43423;46.510;6.686;2022-08-27T06:29:02;6.93;;;5.35;;
57593;SDS011;43423;46.510;6.686;2022-08-27T06:31:29;6.05;;;4.90;;
57593;SDS011;43423;46.510;6.686;2022-08-27T06:33:57;6.45;;;5.00;;
57593;SDS011;43423;46.510;6.686;2022-08-27T06:36:24;6.10;;;4.75;;
57593;SDS011;43423;46.510;6.686;2022-08-27T06:38:51;7.47;;;5.45;;
57593;SDS011;43423;46.510;6.686;2022-08-27T06:41:18;6.28;;;4.97;;
57593;SDS011;43423;46.510;6.686;2022-08-27T06:43:46;6.80;;;5.57;;
57593;SDS011;43423;46.510;6.686;2022-08-27T06:46:14;5.63;;;4.60;;
57593;SDS011;43423;46.510;6.686;2022-08-27T06:48:42;8.57;;;4.45;;
57593;SDS011;43423;46.510;6.686;2022-08-27T06:51:14;6.38;;;4.65;;
57593;SDS011;43423;46.510;6.686;2022-08-27T06:53:42;4.97;;;4.38;;
57593;SDS011;43423;46.510;6.686;2022-08-27T06:56:09;5.20;;;4.63;;
57593;SDS011;43423;46.510;6.686;2022-08-27T06:58:36;5.85;;;4.43;;
57593;SDS011;43423;46.510;6.686;2022-08-27T07:01:10;7.38;;;4.75;;
57593;SDS011;43423;46.510;6.686;2022-08-27T07:03:56;6.10;;;4.32;;
57593;SDS011;43423;46.510;6.686;2022-08-27T07:08:49;6.13;;;4.85;;
57593;SDS011;43423;46.510;6.686;2022-08-27T07:11:14;6.55;;;3.92;;
57593;SDS011;43423;46.510;6.686;2022-08-27T07:13:41;4.60;;;3.90;;
57593;SDS011;43423;46.510;6.686;2022-08-27T07:16:08;4.13;;;3.72;;
57593;SDS011;43423;46.510;6.686;2022-08-27T07:18:37;6.78;;;4.32;;
57593;SDS011;43423;46.510;6.686;2022-08-27T07:21:03;5.25;;;4.10;;
57593;SDS011;43423;46.510;6.686;2022-08-27T07:23:30;4.43;;;3.75;;
57593;SDS011;43423;46.510;6.686;2022-08-27T07:25:57;8.45;;;4.13;;
57593;SDS011;43423;46.510;6.686;2022-08-27T07:28:23;4.85;;;4.13;;
57593;SDS011;43423;46.510;6.686;2022-08-27T07:30:48;4.45;;;3.90;;
57593;SDS011;43423;46.510;6.686;2022-08-27T07:33:14;5.43;;;4.18;;
57593;SDS011;43423;46.510;6.686;2022-08-27T07:35:40;6.47;;;4.45;;
57593;SDS011;43423;46.510;6.686;2022-08-27T07:38:08;6.88;;;3.88;;
57593;SDS011;43423;46.510;6.686;2022-08-27T07:40:34;4.55;;;4.15;;
57593;SDS011;43423;46.510;6.686;2022-08-27T07:43:00;5.63;;;4.13;;
57593;SDS011;43423;46.510;6.686;2022-08-27T07:45:45;4.70;;;4.20;;
57593;SDS011;43423;46.510;6.686;2022-08-27T07:48:13;4.43;;;4.03;;
57593;SDS011;43423;46.510;6.686;2022-08-27T07:50:40;5.28;;;4.28;;
57593;SDS011;43423;46.510;6.686;2022-08-27T07:53:07;5.45;;;4.38;;
57593;SDS011;43423;46.510;6.686;2022-08-27T07:55:36;5.15;;;4.07;;
57593;SDS011;43423;46.510;6.686;2022-08-27T07:58:02;5.13;;;4.55;;
57593;SDS011;43423;46.510;6.686;2022-08-27T08:00:28;5.53;;;4.55;;
57593;SDS011;43423;46.510;6.686;2022-08-27T08:02:54;4.55;;;4.15;;
57593;SDS011;43423;46.510;6.686;2022-08-27T08:05:19;4.90;;;4.43;;
57593;SDS011;43423;46.510;6.686;2022-08-27T08:07:45;4.95;;;4.45;;
57593;SDS011;43423;46.510;6.686;2022-08-27T08:10:10;4.90;;;4.40;;
57593;SDS011;43423;46.510;6.686;2022-08-27T08:12:36;4.93;;;4.43;;
57593;SDS011;43423;46.510;6.686;2022-08-27T08:15:04;6.10;;;4.45;;
57593;SDS011;43423;46.510;6.686;2022-08-27T08:17:34;5.82;;;4.68;;
57593;SDS011;43423;46.510;6.686;2022-08-27T08:20:01;4.82;;;4.30;;
57593;SDS011;43423;46.510;6.686;2022-08-27T08:22:29;5.30;;;4.80;;
57593;SDS011;43423;46.510;6.686;2022-08-27T08:24:54;5.20;;;4.65;;
57593;SDS011;43423;46.510;6.686;2022-08-27T08:27:20;4.90;;;4.35;;
57593;SDS011;43423;46.510;6.686;2022-08-27T08:29:46;5.28;;;4.60;;
57593;SDS011;43423;46.510;6.686;2022-08-27T08:32:12;6.38;;;4.53;;
57593;SDS011;43423;46.510;6.686;2022-08-27T08:34:38;6.38;;;4.82;;
57593;SDS011;43423;46.510;6.686;2022-08-27T08:37:04;5.13;;;4.50;;
57593;SDS011;43423;46.510;6.686;2022-08-27T08:39:31;6.60;;;5.28;;
57593;SDS011;43423;46.510;6.686;2022-08-27T08:41:57;7.57;;;5.32;;
57593;SDS011;43423;46.510;6.686;2022-08-27T08:44:27;5.68;;;4.45;;
57593;SDS011;43423;46.510;6.686;2022-08-27T08:47:11;5.20;;;4.70;;
57593;SDS011;43423;46.510;6.686;2022-08-27T08:50:04;5.35;;;4.47;;
57593;SDS011;43423;46.510;6.686;2022-08-27T08:58:54;6.15;;;4.85;;
57593;SDS011;43423;46.510;6.686;2022-08-27T09:01:06;6.45;;;5.15;;
57593;SDS011;43423;46.510;6.686;2022-08-27T09:03:34;4.78;;;4.28;;
57593;SDS011;43423;46.510;6.686;2022-08-27T09:08:36;5.03;;;4.47;;
57593;SDS011;43423;46.510;6.686;2022-08-27T09:11:13;7.13;;;4.68;;
57593;SDS011;43423;46.510;6.686;2022-08-27T09:13:52;7.13;;;5.53;;
57593;SDS011;43423;46.510;6.686;2022-08-27T09:16:21;5.53;;;4.65;;
57593;SDS011;43423;46.510;6.686;2022-08-27T09:18:47;7.47;;;5.43;;
57593;SDS011;43423;46.510;6.686;2022-08-27T09:21:23;5.07;;;4.57;;
57593;SDS011;43423;46.510;6.686;2022-08-27T09:26:51;5.55;;;4.82;;
57593;SDS011;43423;46.510;6.686;2022-08-27T09:29:16;7.55;;;5.13;;
57593;SDS011;43423;46.510;6.686;2022-08-27T09:31:46;5.72;;;5.00;;
57593;SDS011;43423;46.510;6.686;2022-08-27T09:34:18;5.55;;;4.97;;
57593;SDS011;43423;46.510;6.686;2022-08-27T09:36:48;5.70;;;4.97;;
57593;SDS011;43423;46.510;6.686;2022-08-27T09:39:24;6.95;;;5.10;;
57593;SDS011;43423;46.510;6.686;2022-08-27T09:42:21;5.40;;;4.70;;
57593;SDS011;43423;46.510;6.686;2022-08-27T09:45:08;6.20;;;4.70;;
57593;SDS011;43423;46.510;6.686;2022-08-27T09:47:40;5.60;;;5.05;;
57593;SDS011;43423;46.510;6.686;2022-08-27T09:50:16;10.13;;;5.50;;
57593;SDS011;43423;46.510;6.686;2022-08-27T09:52:50;5.78;;;4.78;;
57593;SDS011;43423;46.510;6.686;2022-08-27T09:55:26;5.28;;;4.78;;
57593;SDS011;43423;46.510;6.686;2022-08-27T09:57:58;5.80;;;4.57;;
57593;SDS011;43423;46.510;6.686;2022-08-27T10:00:34;6.40;;;5.50;;
57593;SDS011;43423;46.510;6.686;2022-08-27T10:03:02;6.75;;;4.53;;
57593;SDS011;43423;46.510;6.686;2022-08-27T10:05:51;8.45;;;5.00;;
57593;SDS011;43423;46.510;6.686;2022-08-27T10:13:51;6.03;;;5.43;;
57593;SDS011;43423;46.510;6.686;2022-08-27T10:22:03;5.30;;;4.80;;
57593;SDS011;43423;46.510;6.686;2022-08-27T10:24:47;6.45;;;5.28;;
57593;SDS011;43423;46.510;6.686;2022-08-27T10:27:57;7.40;;;5.20;;
57593;SDS011;43423;46.510;6.686;2022-08-27T10:53:10;5.22;;;4.53;;
57593;SDS011;43423;46.510;6.686;2022-08-27T10:55:47;5.85;;;5.03;;
57593;SDS011;43423;46.510;6.686;2022-08-27T10:58:20;5.57;;;4.83;;
57593;SDS011;43423;46.510;6.686;2022-08-27T11:03:41;12.15;;;4.97;;
57593;SDS011;43423;46.510;6.686;2022-08-27T11:06:30;5.32;;;4.78;;
57593;SDS011;43423;46.510;6.686;2022-08-27T11:09:02;5.60;;;4.85;;
57593;SDS011;43423;46.510;6.686;2022-08-27T11:14:07;6.82;;;4.85;;
57593;SDS011;43423;46.510;6.686;2022-08-27T11:16:44;5.38;;;4.68;;
57593;SDS011;43423;46.510;6.686;2022-08-27T11:22:11;5.53;;;4.78;;
57593;SDS011;43423;46.510;6.686;2022-08-27T11:24:58;6.68;;;5.03;;
57593;SDS011;43423;46.510;6.686;2022-08-27T11:27:31;5.30;;;4.57;;
57593;SDS011;43423;46.510;6.686;2022-08-27T11:30:05;4.88;;;4.28;;
57593;SDS011;43423;46.510;6.686;2022-08-27T11:35:34;5.00;;;4.30;;
57593;SDS011;43423;46.510;6.686;2022-08-27T11:38:24;5.10;;;4.60;;
57593;SDS011;43423;46.510;6.686;2022-08-27T11:41:23;5.50;;;4.72;;
57593;SDS011;43423;46.510;6.686;2022-08-27T11:43:59;4.72;;;4.22;;
57593;SDS011;43423;46.510;6.686;2022-08-27T11:46:26;5.80;;;4.95;;
57593;SDS011;43423;46.510;6.686;2022-08-27T11:49:03;4.43;;;4.03;;
57593;SDS011;43423;46.510;6.686;2022-08-27T11:51:36;5.28;;;4.70;;
57593;SDS011;43423;46.510;6.686;2022-08-27T11:54:04;4.40;;;4.00;;
57593;SDS011;43423;46.510;6.686;2022-08-27T12:01:52;5.57;;;4.57;;
57593;SDS011;43423;46.510;6.686;2022-08-27T12:07:05;5.80;;;4.55;;
57593;SDS011;43423;46.510;6.686;2022-08-27T12:12:40;4.88;;;4.38;;
57593;SDS011;43423;46.510;6.686;2022-08-27T12:15:38;5.15;;;4.65;;
57593;SDS011;43423;46.510;6.686;2022-08-27T12:21:35;6.45;;;4.80;;
57593;SDS011;43423;46.510;6.686;2022-08-27T12:26:58;4.53;;;4.10;;
57593;SDS011;43423;46.510;6.686;2022-08-27T12:34:47;5.60;;;4.30;;
57593;SDS011;43423;46.510;6.686;2022-08-27T12:37:16;3.90;;;3.53;;
57593;SDS011;43423;46.510;6.686;2022-08-27T12:39:49;4.78;;;3.78;;
57593;SDS011;43423;46.510;6.686;2022-08-27T12:42:17;3.55;;;3.25;;
57593;SDS011;43423;46.510;6.686;2022-08-27T12:44:45;3.53;;;3.22;;
57593;SDS011;43423;46.510;6.686;2022-08-27T12:47:11;10.13;;;4.35;;
57593;SDS011;43423;46.510;6.686;2022-08-27T12:49:43;4.40;;;3.97;;
57593;SDS011;43423;46.510;6.686;2022-08-27T12:58:32;4.25;;;3.47;;
57593;SDS011;43423;46.510;6.686;2022-08-27T13:01:10;4.50;;;2.97;;
57593;SDS011;43423;46.510;6.686;2022-08-27T13:03:49;3.30;;;2.87;;
57593;SDS011;43423;46.510;6.686;2022-08-27T13:06:19;6.30;;;4.13;;
57593;SDS011;43423;46.510;6.686;2022-08-27T13:08:54;3.83;;;3.42;;
57593;SDS011;43423;46.510;6.686;2022-08-27T13:11:24;3.40;;;2.80;;
57593;SDS011;43423;46.510;6.686;2022-08-27T13:14:09;3.38;;;3.08;;
57593;SDS011;43423;46.510;6.686;2022-08-27T13:16:48;4.32;;;3.70;;
57593;SDS011;43423;46.510;6.686;2022-08-27T13:19:44;3.90;;;3.17;;
57593;SDS011;43423;46.510;6.686;2022-08-27T13:22:08;4.72;;;3.13;;
57593;SDS011;43423;46.510;6.686;2022-08-27T13:24:44;3.00;;;2.80;;
57593;SDS011;43423;46.510;6.686;2022-08-27T13:27:12;3.28;;;2.97;;
57593;SDS011;43423;46.510;6.686;2022-08-27T13:29:38;3.78;;;3.38;;
57593;SDS011;43423;46.510;6.686;2022-08-27T13:32:05;3.58;;;3.28;;
57593;SDS011;43423;46.510;6.686;2022-08-27T13:34:32;3.33;;;3.03;;
57593;SDS011;43423;46.510;6.686;2022-08-27T13:39:36;6.30;;;4.28;;
57593;SDS011;43423;46.510;6.686;2022-08-27T13:42:03;4.05;;;3.22;;
57593;SDS011;43423;46.510;6.686;2022-08-27T13:44:38;5.65;;;3.60;;
57593;SDS011;43423;46.510;6.686;2022-08-27T13:49:41;4.95;;;3.35;;
57593;SDS011;43423;46.510;6.686;2022-08-27T13:54:41;3.40;;;3.10;;
57593;SDS011;43423;46.510;6.686;2022-08-27T13:57:09;3.10;;;2.78;;
57593;SDS011;43423;46.510;6.686;2022-08-27T13:59:38;4.50;;;2.97;;
57593;SDS011;43423;46.510;6.686;2022-08-27T14:07:04;3.10;;;2.80;;
57593;SDS011;43423;46.510;6.686;2022-08-27T14:10:29;2.97;;;2.70;;
57593;SDS011;43423;46.510;6.686;2022-08-27T14:12:59;5.88;;;3.17;;
57593;SDS011;43423;46.510;6.686;2022-08-27T14:18:06;2.97;;;2.55;;
57593;SDS011;43423;46.510;6.686;2022-08-27T14:20:44;2.67;;;2.40;;
57593;SDS011;43423;46.510;6.686;2022-08-27T14:23:10;2.70;;;2.50;;
57593;SDS011;43423;46.510;6.686;2022-08-27T14:25:36;2.85;;;2.17;;
57593;SDS011;43423;46.510;6.686;2022-08-27T14:28:02;3.35;;;2.63;;
57593;SDS011;43423;46.510;6.686;2022-08-27T14:30:27;3.10;;;2.78;;
57593;SDS011;43423;46.510;6.686;2022-08-27T14:32:53;2.53;;;2.33;;
57593;SDS011;43423;46.510;6.686;2022-08-27T14:35:19;2.88;;;2.42;;
57593;SDS011;43423;46.510;6.686;2022-08-27T14:37:44;3.20;;;2.78;;
57593;SDS011;43423;46.510;6.686;2022-08-27T14:40:11;3.03;;;2.72;;
57593;SDS011;43423;46.510;6.686;2022-08-27T14:42:37;4.10;;;2.65;;
57593;SDS011;43423;46.510;6.686;2022-08-27T14:45:04;3.28;;;2.97;;
57593;SDS011;43423;46.510;6.686;2022-08-27T14:47:30;3.08;;;2.75;;
57593;SDS011;43423;46.510;6.686;2022-08-27T14:49:57;2.90;;;2.60;;
57593;SDS011;43423;46.510;6.686;2022-08-27T14:52:22;3.58;;;2.42;;
57593;SDS011;43423;46.510;6.686;2022-08-27T14:54:48;2.70;;;2.45;;
57593;SDS011;43423;46.510;6.686;2022-08-27T14:57:14;3.05;;;2.58;;
57593;SDS011;43423;46.510;6.686;2022-08-27T14:59:39;2.85;;;2.47;;
57593;SDS011;43423;46.510;6.686;2022-08-27T15:02:06;3.03;;;2.70;;
57593;SDS011;43423;46.510;6.686;2022-08-27T15:07:01;3.80;;;2.60;;
57593;SDS011;43423;46.510;6.686;2022-08-27T15:09:26;3.67;;;2.67;;
57593;SDS011;43423;46.510;6.686;2022-08-27T15:11:52;3.10;;;2.80;;
57593;SDS011;43423;46.510;6.686;2022-08-27T15:14:20;3.80;;;2.58;;
57593;SDS011;43423;46.510;6.686;2022-08-27T15:16:49;3.30;;;3.00;;
57593;SDS011;43423;46.510;6.686;2022-08-27T15:19:17;3.85;;;2.67;;
57593;SDS011;43423;46.510;6.686;2022-08-27T15:21:44;3.22;;;2.50;;
57593;SDS011;43423;46.510;6.686;2022-08-27T15:24:16;2.78;;;2.55;;
57593;SDS011;43423;46.510;6.686;2022-08-27T15:27:04;3.67;;;2.70;;
57593;SDS011;43423;46.510;6.686;2022-08-27T15:29:29;2.45;;;2.25;;
57593;SDS011;43423;46.510;6.686;2022-08-27T15:31:55;3.25;;;2.55;;
57593;SDS011;43423;46.510;6.686;2022-08-27T15:34:21;2.60;;;2.40;;
57593;SDS011;43423;46.510;6.686;2022-08-27T15:36:46;2.97;;;2.55;;
57593;SDS011;43423;46.510;6.686;2022-08-27T15:39:12;4.97;;;2.65;;
57593;SDS011;43423;46.510;6.686;2022-08-27T15:41:38;2.53;;;2.33;;
57593;SDS011;43423;46.510;6.686;2022-08-27T15:44:05;4.50;;;2.88;;
57593;SDS011;43423;46.510;6.686;2022-08-27T15:46:31;2.90;;;2.60;;
57593;SDS011;43423;46.510;6.686;2022-08-27T15:48:56;3.35;;;2.47;;
57593;SDS011;43423;46.510;6.686;2022-08-27T15:51:26;3.97;;;2.67;;
57593;SDS011;43423;46.510;6.686;2022-08-27T15:53:54;2.88;;;2.42;;
57593;SDS011;43423;46.510;6.686;2022-08-27T15:56:20;2.70;;;2.50;;
57593;SDS011;43423;46.510;6.686;2022-08-27T15:58:45;3.22;;;2.42;;
57593;SDS011;43423;46.510;6.686;2022-08-27T16:01:12;4.95;;;2.67;;
57593;SDS011;43423;46.510;6.686;2022-08-27T16:03:42;2.47;;;2.25;;
57593;SDS011;43423;46.510;6.686;2022-08-27T16:06:10;2.80;;;2.53;;
57593;SDS011;43423;46.510;6.686;2022-08-27T16:08:36;3.42;;;2.60;;
57593;SDS011;43423;46.510;6.686;2022-08-27T16:11:02;3.08;;;2.78;;
57593;SDS011;43423;46.510;6.686;2022-08-27T16:13:28;3.83;;;2.85;;
57593;SDS011;43423;46.510;6.686;2022-08-27T16:15:54;2.90;;;2.55;;
57593;SDS011;43423;46.510;6.686;2022-08-27T16:18:21;3.72;;;2.97;;
57593;SDS011;43423;46.510;6.686;2022-08-27T16:20:51;5.18;;;3.20;;
57593;SDS011;43423;46.510;6.686;2022-08-27T16:23:17;3.88;;;2.90;;
57593;SDS011;43423;46.510;6.686;2022-08-27T16:25:44;9.07;;;3.92;;
57593;SDS011;43423;46.510;6.686;2022-08-27T16:28:09;6.20;;;4.10;;
57593;SDS011;43423;46.510;6.686;2022-08-27T16:30:36;4.10;;;3.35;;
57593;SDS011;43423;46.510;6.686;2022-08-27T16:33:02;5.10;;;3.33;;
57593;SDS011;43423;46.510;6.686;2022-08-27T16:35:28;4.10;;;2.97;;
57593;SDS011;43423;46.510;6.686;2022-08-27T16:37:53;4.20;;;3.00;;
57593;SDS011;43423;46.510;6.686;2022-08-27T16:40:22;3.67;;;3.10;;
57593;SDS011;43423;46.510;6.686;2022-08-27T16:42:48;3.63;;;3.25;;
57593;SDS011;43423;46.510;6.686;2022-08-27T16:45:18;4.28;;;3.33;;
57593;SDS011;43423;46.510;6.686;2022-08-27T16:47:49;6.88;;;3.30;;